Pays
Station

 

Conditions  météo  pour  Silver Bay  -  Etats-Unis    Etats-Unis

  
8 °C
    
 
 

METAR pour Silver Bay :

KBFW 212245Z AUTO 00000KT 10SM CLR 08/M03 A2991 RMK AO2

 

Voici le bulletin pour Silver Bay - Etats-Unis.
 
Le bulletin a été fait il y a 16 minutes, à 22:45 UTC .
Le vent était calme.
 
La température était de 8 °C, avec un point de rosée à -3 °C.
La pression atmosphérique était de 1013 hPa.
L'humidité relative était de 45.6%.
 
Le ciel était clair.
 
La visibilité globale était de 16.1 kilomètres.
 

 
 
 

Pays :   A   B   C   D   E   F   G   H   I   J   K   L   M   N   O   P   Q   R   S   T   U   V   W   Y   Z

 

Partenaires :  Info Météo avec Met'info
Météo Marine avec MeteoMarine.net
Infos Site  |  Infos Légales  |  Crédits  |  Confidentialité
Contactez-nous  |  Ajouter aux favoris
© 2013-2018 METAR - Tous droits réservés